sensor_id;sensor_type;location;lat;lon;timestamp;temperature;humidity
21616;DHT22;10970;48.714;9.584;2023-03-14T00:02:21;9.30;99.90
21616;DHT22;10970;48.714;9.584;2023-03-14T00:04:47;9.40;99.90
21616;DHT22;10970;48.714;9.584;2023-03-14T00:07:13;9.40;99.90
21616;DHT22;10970;48.714;9.584;2023-03-14T00:09:39;9.50;99.90
21616;DHT22;10970;48.714;9.584;2023-03-14T00:12:06;9.50;99.90
21616;DHT22;10970;48.714;9.584;2023-03-14T00:14:33;9.50;99.90
21616;DHT22;10970;48.714;9.584;2023-03-14T00:16:59;9.50;99.90
21616;DHT22;10970;48.714;9.584;2023-03-14T00:19:24;9.50;99.90
21616;DHT22;10970;48.714;9.584;2023-03-14T00:21:50;9.60;99.90
21616;DHT22;10970;48.714;9.584;2023-03-14T00:24:15;9.60;99.90
21616;DHT22;10970;48.714;9.584;2023-03-14T00:26:41;9.70;99.90
21616;DHT22;10970;48.714;9.584;2023-03-14T00:29:07;9.70;99.90
21616;DHT22;10970;48.714;9.584;2023-03-14T00:31:32;9.70;99.90
21616;DHT22;10970;48.714;9.584;2023-03-14T00:33:58;9.70;99.90
21616;DHT22;10970;48.714;9.584;2023-03-14T00:36:24;9.60;99.90
21616;DHT22;10970;48.714;9.584;2023-03-14T00:38:51;9.60;99.90
21616;DHT22;10970;48.714;9.584;2023-03-14T00:41:19;9.60;99.90
21616;DHT22;10970;48.714;9.584;2023-03-14T00:43:45;9.50;99.90
21616;DHT22;10970;48.714;9.584;2023-03-14T00:46:11;9.50;99.90
21616;DHT22;10970;48.714;9.584;2023-03-14T00:48:37;9.50;99.90
21616;DHT22;10970;48.714;9.584;2023-03-14T00:51:04;9.50;99.90
21616;DHT22;10970;48.714;9.584;2023-03-14T00:53:30;9.40;99.90
21616;DHT22;10970;48.714;9.584;2023-03-14T00:55:56;9.40;99.90
21616;DHT22;10970;48.714;9.584;2023-03-14T00:58:22;9.40;99.90
21616;DHT22;10970;48.714;9.584;2023-03-14T01:00:48;9.40;99.90
21616;DHT22;10970;48.714;9.584;2023-03-14T01:03:14;9.40;99.90
21616;DHT22;10970;48.714;9.584;2023-03-14T01:05:40;9.40;99.90
21616;DHT22;10970;48.714;9.584;2023-03-14T01:08:06;9.40;99.90
21616;DHT22;10970;48.714;9.584;2023-03-14T01:10:40;9.40;99.90
21616;DHT22;10970;48.714;9.584;2023-03-14T01:13:07;9.40;99.90
21616;DHT22;10970;48.714;9.584;2023-03-14T01:15:34;9.30;99.90
21616;DHT22;10970;48.714;9.584;2023-03-14T01:18:00;9.30;99.90
21616;DHT22;10970;48.714;9.584;2023-03-14T01:20:26;9.30;99.90
21616;DHT22;10970;48.714;9.584;2023-03-14T01:22:52;9.40;99.90
21616;DHT22;10970;48.714;9.584;2023-03-14T01:25:18;9.40;99.90
21616;DHT22;10970;48.714;9.584;2023-03-14T01:27:44;9.40;99.90
21616;DHT22;10970;48.714;9.584;2023-03-14T01:30:10;9.40;99.90
21616;DHT22;10970;48.714;9.584;2023-03-14T01:32:37;9.40;99.90
21616;DHT22;10970;48.714;9.584;2023-03-14T01:35:04;9.30;99.90
21616;DHT22;10970;48.714;9.584;2023-03-14T01:37:30;9.30;99.90
21616;DHT22;10970;48.714;9.584;2023-03-14T01:39:55;9.30;99.90
21616;DHT22;10970;48.714;9.584;2023-03-14T01:42:21;9.30;99.90
21616;DHT22;10970;48.714;9.584;2023-03-14T01:47:20;9.20;99.90
21616;DHT22;10970;48.714;9.584;2023-03-14T01:50:09;9.20;99.90
21616;DHT22;10970;48.714;9.584;2023-03-14T01:52:40;9.20;99.90
21616;DHT22;10970;48.714;9.584;2023-03-14T01:55:21;9.20;99.90
21616;DHT22;10970;48.714;9.584;2023-03-14T01:57:56;9.20;99.90
21616;DHT22;10970;48.714;9.584;2023-03-14T02:00:24;9.20;99.90
21616;DHT22;10970;48.714;9.584;2023-03-14T02:03:02;9.20;99.90
21616;DHT22;10970;48.714;9.584;2023-03-14T02:05:32;9.20;99.90
21616;DHT22;10970;48.714;9.584;2023-03-14T02:08:01;9.10;99.90
21616;DHT22;10970;48.714;9.584;2023-03-14T02:10:30;9.10;99.90
21616;DHT22;10970;48.714;9.584;2023-03-14T02:12:57;9.10;99.90
21616;DHT22;10970;48.714;9.584;2023-03-14T02:15:25;9.10;99.90
21616;DHT22;10970;48.714;9.584;2023-03-14T02:17:51;9.10;99.90
21616;DHT22;10970;48.714;9.584;2023-03-14T02:22:58;9.00;99.90
21616;DHT22;10970;48.714;9.584;2023-03-14T02:28:09;9.00;99.90
21616;DHT22;10970;48.714;9.584;2023-03-14T02:30:35;9.00;99.90
21616;DHT22;10970;48.714;9.584;2023-03-14T02:33:04;9.00;99.90
21616;DHT22;10970;48.714;9.584;2023-03-14T02:35:37;9.00;99.90
21616;DHT22;10970;48.714;9.584;2023-03-14T02:40:32;9.10;99.90
21616;DHT22;10970;48.714;9.584;2023-03-14T02:42:58;9.00;99.90
21616;DHT22;10970;48.714;9.584;2023-03-14T02:47:54;8.90;99.90
21616;DHT22;10970;48.714;9.584;2023-03-14T02:50:22;8.90;99.90
21616;DHT22;10970;48.714;9.584;2023-03-14T02:52:49;8.90;99.90
21616;DHT22;10970;48.714;9.584;2023-03-14T02:55:19;8.90;99.90
21616;DHT22;10970;48.714;9.584;2023-03-14T02:57:45;8.90;99.90
21616;DHT22;10970;48.714;9.584;2023-03-14T03:00:11;8.90;99.90
21616;DHT22;10970;48.714;9.584;2023-03-14T03:02:36;8.90;99.90
21616;DHT22;10970;48.714;9.584;2023-03-14T03:05:02;8.90;99.90
21616;DHT22;10970;48.714;9.584;2023-03-14T03:07:28;8.90;99.90
21616;DHT22;10970;48.714;9.584;2023-03-14T03:09:54;8.90;99.90
21616;DHT22;10970;48.714;9.584;2023-03-14T03:12:20;8.90;99.90
21616;DHT22;10970;48.714;9.584;2023-03-14T03:14:45;8.90;99.90
21616;DHT22;10970;48.714;9.584;2023-03-14T03:17:11;8.90;99.90
21616;DHT22;10970;48.714;9.584;2023-03-14T03:19:37;9.00;99.90
21616;DHT22;10970;48.714;9.584;2023-03-14T03:22:02;9.10;99.90
21616;DHT22;10970;48.714;9.584;2023-03-14T03:24:28;9.20;99.90
21616;DHT22;10970;48.714;9.584;2023-03-14T03:26:53;9.10;99.90
21616;DHT22;10970;48.714;9.584;2023-03-14T03:29:19;9.10;99.90
21616;DHT22;10970;48.714;9.584;2023-03-14T03:31:45;9.20;99.90
21616;DHT22;10970;48.714;9.584;2023-03-14T03:34:11;9.20;99.90
21616;DHT22;10970;48.714;9.584;2023-03-14T03:36:37;9.30;99.90
21616;DHT22;10970;48.714;9.584;2023-03-14T03:39:03;9.40;99.90
21616;DHT22;10970;48.714;9.584;2023-03-14T03:41:29;9.40;99.90
21616;DHT22;10970;48.714;9.584;2023-03-14T03:43:56;9.30;99.90
21616;DHT22;10970;48.714;9.584;2023-03-14T03:46:22;9.30;99.90
21616;DHT22;10970;48.714;9.584;2023-03-14T03:48:48;9.40;99.90
21616;DHT22;10970;48.714;9.584;2023-03-14T03:51:14;9.30;99.90
21616;DHT22;10970;48.714;9.584;2023-03-14T03:53:41;9.30;99.90
21616;DHT22;10970;48.714;9.584;2023-03-14T03:56:07;9.20;99.90
21616;DHT22;10970;48.714;9.584;2023-03-14T03:58:33;9.40;99.90
21616;DHT22;10970;48.714;9.584;2023-03-14T04:00:58;9.30;99.90
21616;DHT22;10970;48.714;9.584;2023-03-14T04:03:24;9.30;99.90
21616;DHT22;10970;48.714;9.584;2023-03-14T04:08:26;9.30;99.90
21616;DHT22;10970;48.714;9.584;2023-03-14T04:10:57;9.30;99.90
21616;DHT22;10970;48.714;9.584;2023-03-14T04:13:24;9.20;99.90
21616;DHT22;10970;48.714;9.584;2023-03-14T04:15:51;9.20;99.90
21616;DHT22;10970;48.714;9.584;2023-03-14T04:18:17;9.30;99.90
21616;DHT22;10970;48.714;9.584;2023-03-14T04:20:43;9.30;99.90
21616;DHT22;10970;48.714;9.584;2023-03-14T04:23:09;9.30;99.90
21616;DHT22;10970;48.714;9.584;2023-03-14T04:25:35;9.30;99.90
21616;DHT22;10970;48.714;9.584;2023-03-14T04:28:01;9.20;99.90
21616;DHT22;10970;48.714;9.584;2023-03-14T04:30:27;9.20;99.90
21616;DHT22;10970;48.714;9.584;2023-03-14T04:32:52;9.30;99.90
21616;DHT22;10970;48.714;9.584;2023-03-14T04:35:19;9.30;99.90
21616;DHT22;10970;48.714;9.584;2023-03-14T04:37:44;9.30;99.90
21616;DHT22;10970;48.714;9.584;2023-03-14T04:40:10;9.30;99.90
21616;DHT22;10970;48.714;9.584;2023-03-14T04:42:36;9.30;99.90
21616;DHT22;10970;48.714;9.584;2023-03-14T04:45:03;9.10;99.90
21616;DHT22;10970;48.714;9.584;2023-03-14T04:47:28;9.10;99.90
21616;DHT22;10970;48.714;9.584;2023-03-14T04:49:54;9.00;99.90
21616;DHT22;10970;48.714;9.584;2023-03-14T04:52:20;9.00;99.90
21616;DHT22;10970;48.714;9.584;2023-03-14T04:54:45;8.90;99.90
21616;DHT22;10970;48.714;9.584;2023-03-14T04:57:11;9.00;99.90
21616;DHT22;10970;48.714;9.584;2023-03-14T04:59:37;9.10;99.90
21616;DHT22;10970;48.714;9.584;2023-03-14T05:02:02;9.10;99.90
21616;DHT22;10970;48.714;9.584;2023-03-14T05:04:28;9.00;99.90
21616;DHT22;10970;48.714;9.584;2023-03-14T05:06:54;8.90;99.90
21616;DHT22;10970;48.714;9.584;2023-03-14T05:09:20;8.90;99.90
21616;DHT22;10970;48.714;9.584;2023-03-14T05:11:46;8.90;99.90
21616;DHT22;10970;48.714;9.584;2023-03-14T05:14:11;9.00;99.90
21616;DHT22;10970;48.714;9.584;2023-03-14T05:16:37;8.90;99.90
21616;DHT22;10970;48.714;9.584;2023-03-14T05:19:03;9.10;99.90
21616;DHT22;10970;48.714;9.584;2023-03-14T05:21:28;9.10;99.90
21616;DHT22;10970;48.714;9.584;2023-03-14T05:23:54;9.10;99.90
21616;DHT22;10970;48.714;9.584;2023-03-14T05:26:19;9.10;99.90
21616;DHT22;10970;48.714;9.584;2023-03-14T05:28:45;9.20;99.90
21616;DHT22;10970;48.714;9.584;2023-03-14T05:31:11;9.20;99.90
21616;DHT22;10970;48.714;9.584;2023-03-14T05:33:36;9.40;99.90
21616;DHT22;10970;48.714;9.584;2023-03-14T05:36:02;9.50;99.90
21616;DHT22;10970;48.714;9.584;2023-03-14T05:38:28;9.40;99.90
21616;DHT22;10970;48.714;9.584;2023-03-14T05:40:54;9.40;99.90
21616;DHT22;10970;48.714;9.584;2023-03-14T05:43:19;9.50;99.90
21616;DHT22;10970;48.714;9.584;2023-03-14T05:45:45;9.30;99.90
21616;DHT22;10970;48.714;9.584;2023-03-14T05:48:11;9.40;99.90
21616;DHT22;10970;48.714;9.584;2023-03-14T05:50:36;9.40;99.90
21616;DHT22;10970;48.714;9.584;2023-03-14T05:53:02;9.30;99.90
21616;DHT22;10970;48.714;9.584;2023-03-14T05:55:28;9.30;99.90
21616;DHT22;10970;48.714;9.584;2023-03-14T05:57:54;9.30;99.90
21616;DHT22;10970;48.714;9.584;2023-03-14T06:00:20;9.30;99.90
21616;DHT22;10970;48.714;9.584;2023-03-14T06:02:46;9.30;99.90
21616;DHT22;10970;48.714;9.584;2023-03-14T06:05:14;9.30;99.90
21616;DHT22;10970;48.714;9.584;2023-03-14T06:07:40;9.30;99.90
21616;DHT22;10970;48.714;9.584;2023-03-14T06:10:06;9.30;99.90
21616;DHT22;10970;48.714;9.584;2023-03-14T06:12:32;9.20;99.90
21616;DHT22;10970;48.714;9.584;2023-03-14T06:14:58;9.20;99.90
21616;DHT22;10970;48.714;9.584;2023-03-14T06:17:23;9.20;99.90
21616;DHT22;10970;48.714;9.584;2023-03-14T06:19:49;9.10;99.90
21616;DHT22;10970;48.714;9.584;2023-03-14T06:22:15;9.00;99.90
21616;DHT22;10970;48.714;9.584;2023-03-14T06:24:40;9.10;99.90
21616;DHT22;10970;48.714;9.584;2023-03-14T06:27:06;9.20;99.90
21616;DHT22;10970;48.714;9.584;2023-03-14T06:29:32;9.10;99.90
21616;DHT22;10970;48.714;9.584;2023-03-14T06:31:57;9.10;99.90
21616;DHT22;10970;48.714;9.584;2023-03-14T06:34:23;9.10;99.90
21616;DHT22;10970;48.714;9.584;2023-03-14T06:36:49;9.10;99.90
21616;DHT22;10970;48.714;9.584;2023-03-14T06:39:14;9.10;99.90
21616;DHT22;10970;48.714;9.584;2023-03-14T06:41:40;9.10;99.90
21616;DHT22;10970;48.714;9.584;2023-03-14T06:44:05;9.30;99.90
21616;DHT22;10970;48.714;9.584;2023-03-14T06:46:31;9.20;99.90
21616;DHT22;10970;48.714;9.584;2023-03-14T06:48:57;9.20;99.90
21616;DHT22;10970;48.714;9.584;2023-03-14T06:51:23;9.20;99.90
21616;DHT22;10970;48.714;9.584;2023-03-14T06:53:48;9.30;99.90
21616;DHT22;10970;48.714;9.584;2023-03-14T06:56:14;9.20;99.90
21616;DHT22;10970;48.714;9.584;2023-03-14T06:58:39;9.30;99.90
21616;DHT22;10970;48.714;9.584;2023-03-14T07:01:06;9.20;99.90
21616;DHT22;10970;48.714;9.584;2023-03-14T07:03:39;9.20;99.90
21616;DHT22;10970;48.714;9.584;2023-03-14T07:06:05;9.20;99.90
21616;DHT22;10970;48.714;9.584;2023-03-14T07:08:31;9.20;99.90
21616;DHT22;10970;48.714;9.584;2023-03-14T07:10:57;9.30;99.90
21616;DHT22;10970;48.714;9.584;2023-03-14T07:13:22;9.30;99.90
21616;DHT22;10970;48.714;9.584;2023-03-14T07:15:48;9.30;99.90
21616;DHT22;10970;48.714;9.584;2023-03-14T07:18:13;9.40;99.90
21616;DHT22;10970;48.714;9.584;2023-03-14T07:20:39;9.50;99.90
21616;DHT22;10970;48.714;9.584;2023-03-14T07:23:05;9.60;99.90
21616;DHT22;10970;48.714;9.584;2023-03-14T07:25:30;9.70;99.90
21616;DHT22;10970;48.714;9.584;2023-03-14T07:27:56;9.90;99.90
21616;DHT22;10970;48.714;9.584;2023-03-14T07:30:22;9.90;99.90
21616;DHT22;10970;48.714;9.584;2023-03-14T07:32:47;10.00;99.90
21616;DHT22;10970;48.714;9.584;2023-03-14T07:35:13;10.10;99.90
21616;DHT22;10970;48.714;9.584;2023-03-14T07:37:39;10.30;99.90
21616;DHT22;10970;48.714;9.584;2023-03-14T07:40:05;10.50;99.90
21616;DHT22;10970;48.714;9.584;2023-03-14T07:42:32;10.50;99.90
21616;DHT22;10970;48.714;9.584;2023-03-14T07:44:58;10.50;99.90
21616;DHT22;10970;48.714;9.584;2023-03-14T07:47:23;10.50;99.90
21616;DHT22;10970;48.714;9.584;2023-03-14T07:49:49;10.50;99.90
21616;DHT22;10970;48.714;9.584;2023-03-14T07:52:14;10.60;99.90
21616;DHT22;10970;48.714;9.584;2023-03-14T07:54:40;10.70;99.90
21616;DHT22;10970;48.714;9.584;2023-03-14T07:57:06;10.90;99.90
21616;DHT22;10970;48.714;9.584;2023-03-14T07:59:31;11.00;99.90
21616;DHT22;10970;48.714;9.584;2023-03-14T08:01:57;11.10;99.90
21616;DHT22;10970;48.714;9.584;2023-03-14T08:04:23;11.10;99.90
21616;DHT22;10970;48.714;9.584;2023-03-14T08:06:48;11.10;99.90
21616;DHT22;10970;48.714;9.584;2023-03-14T08:09:14;11.20;99.90
21616;DHT22;10970;48.714;9.584;2023-03-14T08:11:40;11.30;99.90
21616;DHT22;10970;48.714;9.584;2023-03-14T08:14:06;11.20;99.90
21616;DHT22;10970;48.714;9.584;2023-03-14T08:16:31;11.20;99.90
21616;DHT22;10970;48.714;9.584;2023-03-14T08:18:57;11.10;99.90
21616;DHT22;10970;48.714;9.584;2023-03-14T08:21:23;11.20;99.90
21616;DHT22;10970;48.714;9.584;2023-03-14T08:23:48;11.20;99.90
21616;DHT22;10970;48.714;9.584;2023-03-14T08:26:14;11.30;99.90
21616;DHT22;10970;48.714;9.584;2023-03-14T08:28:40;11.40;99.90
21616;DHT22;10970;48.714;9.584;2023-03-14T08:31:05;11.60;99.90
21616;DHT22;10970;48.714;9.584;2023-03-14T08:33:31;11.70;99.90
21616;DHT22;10970;48.714;9.584;2023-03-14T08:35:58;11.80;99.90
21616;DHT22;10970;48.714;9.584;2023-03-14T08:38:25;11.70;99.90
21616;DHT22;10970;48.714;9.584;2023-03-14T08:40:56;11.50;99.90
21616;DHT22;10970;48.714;9.584;2023-03-14T08:43:22;11.50;99.90
21616;DHT22;10970;48.714;9.584;2023-03-14T08:45:47;11.40;99.90
21616;DHT22;10970;48.714;9.584;2023-03-14T08:48:13;11.40;99.90
21616;DHT22;10970;48.714;9.584;2023-03-14T08:50:38;11.40;99.90
21616;DHT22;10970;48.714;9.584;2023-03-14T08:53:04;11.50;99.90
21616;DHT22;10970;48.714;9.584;2023-03-14T08:55:30;11.80;99.90
21616;DHT22;10970;48.714;9.584;2023-03-14T08:57:55;12.20;99.90
21616;DHT22;10970;48.714;9.584;2023-03-14T09:00:21;12.50;99.90
21616;DHT22;10970;48.714;9.584;2023-03-14T09:02:47;12.90;99.90
21616;DHT22;10970;48.714;9.584;2023-03-14T09:05:13;13.20;99.90
21616;DHT22;10970;48.714;9.584;2023-03-14T09:07:40;13.40;99.90
21616;DHT22;10970;48.714;9.584;2023-03-14T09:10:07;13.30;99.90
21616;DHT22;10970;48.714;9.584;2023-03-14T09:12:33;13.10;99.90
21616;DHT22;10970;48.714;9.584;2023-03-14T09:14:59;13.10;99.90
21616;DHT22;10970;48.714;9.584;2023-03-14T09:17:25;13.40;99.90
21616;DHT22;10970;48.714;9.584;2023-03-14T09:22:26;13.60;99.90
21616;DHT22;10970;48.714;9.584;2023-03-14T09:24:52;13.70;99.90
21616;DHT22;10970;48.714;9.584;2023-03-14T09:27:17;13.90;99.90
21616;DHT22;10970;48.714;9.584;2023-03-14T09:29:43;14.20;99.90
21616;DHT22;10970;48.714;9.584;2023-03-14T09:32:08;14.20;99.90
21616;DHT22;10970;48.714;9.584;2023-03-14T09:34:34;14.10;99.90
21616;DHT22;10970;48.714;9.584;2023-03-14T09:37:00;14.10;99.90
21616;DHT22;10970;48.714;9.584;2023-03-14T09:39:25;13.90;99.90
21616;DHT22;10970;48.714;9.584;2023-03-14T09:41:52;14.00;99.90
21616;DHT22;10970;48.714;9.584;2023-03-14T09:44:33;13.90;99.90
21616;DHT22;10970;48.714;9.584;2023-03-14T09:47:09;14.20;99.90
21616;DHT22;10970;48.714;9.584;2023-03-14T09:49:39;14.30;99.90
21616;DHT22;10970;48.714;9.584;2023-03-14T09:52:17;14.40;99.90
21616;DHT22;10970;48.714;9.584;2023-03-14T09:55:03;14.40;99.90
21616;DHT22;10970;48.714;9.584;2023-03-14T09:57:29;14.30;99.90
21616;DHT22;10970;48.714;9.584;2023-03-14T10:00:03;14.30;99.90
21616;DHT22;10970;48.714;9.584;2023-03-14T10:02:41;14.00;99.90
21616;DHT22;10970;48.714;9.584;2023-03-14T10:05:19;13.60;99.90
21616;DHT22;10970;48.714;9.584;2023-03-14T10:07:45;13.70;99.90
21616;DHT22;10970;48.714;9.584;2023-03-14T10:10:18;13.80;99.90
21616;DHT22;10970;48.714;9.584;2023-03-14T10:12:58;13.90;99.90
21616;DHT22;10970;48.714;9.584;2023-03-14T10:15:29;14.20;99.90
21616;DHT22;10970;48.714;9.584;2023-03-14T10:17:55;14.10;99.90
21616;DHT22;10970;48.714;9.584;2023-03-14T10:20:34;13.90;99.90
21616;DHT22;10970;48.714;9.584;2023-03-14T10:23:06;13.80;99.90
21616;DHT22;10970;48.714;9.584;2023-03-14T10:25:38;13.40;99.90
21616;DHT22;10970;48.714;9.584;2023-03-14T10:28:05;13.40;99.90
21616;DHT22;10970;48.714;9.584;2023-03-14T10:30:44;13.40;99.90
21616;DHT22;10970;48.714;9.584;2023-03-14T10:33:29;13.60;99.90
21616;DHT22;10970;48.714;9.584;2023-03-14T10:36:03;13.80;99.90
21616;DHT22;10970;48.714;9.584;2023-03-14T10:38:40;13.50;99.90
21616;DHT22;10970;48.714;9.584;2023-03-14T10:41:26;13.30;99.90
21616;DHT22;10970;48.714;9.584;2023-03-14T10:43:55;13.20;99.90
21616;DHT22;10970;48.714;9.584;2023-03-14T10:46:24;13.20;99.90
21616;DHT22;10970;48.714;9.584;2023-03-14T10:48:52;13.20;99.90
21616;DHT22;10970;48.714;9.584;2023-03-14T10:53:47;13.50;99.90
21616;DHT22;10970;48.714;9.584;2023-03-14T10:56:15;13.70;99.90
21616;DHT22;10970;48.714;9.584;2023-03-14T10:58:43;14.00;99.90
21616;DHT22;10970;48.714;9.584;2023-03-14T11:04:21;14.20;99.90
21616;DHT22;10970;48.714;9.584;2023-03-14T11:14:50;14.40;99.90
21616;DHT22;10970;48.714;9.584;2023-03-14T11:20:41;14.20;99.90
21616;DHT22;10970;48.714;9.584;2023-03-14T11:23:13;13.90;99.90
21616;DHT22;10970;48.714;9.584;2023-03-14T11:28:37;13.10;99.90
21616;DHT22;10970;48.714;9.584;2023-03-14T11:31:16;12.80;99.90
21616;DHT22;10970;48.714;9.584;2023-03-14T11:36:27;12.50;99.90
21616;DHT22;10970;48.714;9.584;2023-03-14T11:38:58;12.40;99.90
21616;DHT22;10970;48.714;9.584;2023-03-14T11:41:34;12.40;99.90
21616;DHT22;10970;48.714;9.584;2023-03-14T11:44:09;12.30;99.90
21616;DHT22;10970;48.714;9.584;2023-03-14T11:46:42;12.30;99.90
21616;DHT22;10970;48.714;9.584;2023-03-14T11:51:53;11.90;99.90
21616;DHT22;10970;48.714;9.584;2023-03-14T11:56:58;11.70;99.90
21616;DHT22;10970;48.714;9.584;2023-03-14T12:10:52;11.60;99.90
21616;DHT22;10970;48.714;9.584;2023-03-14T12:13:19;11.60;99.90
21616;DHT22;10970;48.714;9.584;2023-03-14T12:15:55;11.60;99.90
21616;DHT22;10970;48.714;9.584;2023-03-14T12:21:11;11.50;99.90
21616;DHT22;10970;48.714;9.584;2023-03-14T12:26:17;11.50;99.90
21616;DHT22;10970;48.714;9.584;2023-03-14T12:28:49;11.50;99.90
21616;DHT22;10970;48.714;9.584;2023-03-14T12:39:43;11.30;99.90
21616;DHT22;10970;48.714;9.584;2023-03-14T12:45:15;11.00;99.90
21616;DHT22;10970;48.714;9.584;2023-03-14T12:50:27;11.10;99.90
21616;DHT22;10970;48.714;9.584;2023-03-14T12:53:54;11.10;99.90
21616;DHT22;10970;48.714;9.584;2023-03-14T12:59:33;11.10;99.90
21616;DHT22;10970;48.714;9.584;2023-03-14T13:04:37;11.00;99.90
21616;DHT22;10970;48.714;9.584;2023-03-14T13:07:33;11.10;99.90
21616;DHT22;10970;48.714;9.584;2023-03-14T13:12:30;11.20;99.90
21616;DHT22;10970;48.714;9.584;2023-03-14T13:15:00;11.30;99.90
21616;DHT22;10970;48.714;9.584;2023-03-14T13:17:32;11.20;99.90
21616;DHT22;10970;48.714;9.584;2023-03-14T13:20:18;11.20;99.90
21616;DHT22;10970;48.714;9.584;2023-03-14T13:22:49;11.50;99.90
21616;DHT22;10970;48.714;9.584;2023-03-14T13:25:16;11.80;99.90
21616;DHT22;10970;48.714;9.584;2023-03-14T13:27:43;11.90;99.90
21616;DHT22;10970;48.714;9.584;2023-03-14T13:30:35;11.70;99.90
21616;DHT22;10970;48.714;9.584;2023-03-14T13:33:04;11.50;99.90
21616;DHT22;10970;48.714;9.584;2023-03-14T13:35:42;11.50;99.90
21616;DHT22;10970;48.714;9.584;2023-03-14T13:38:23;11.20;99.90
21616;DHT22;10970;48.714;9.584;2023-03-14T13:40:51;11.00;99.90
21616;DHT22;10970;48.714;9.584;2023-03-14T13:43:25;10.80;99.90
21616;DHT22;10970;48.714;9.584;2023-03-14T13:48:19;10.90;99.90
21616;DHT22;10970;48.714;9.584;2023-03-14T13:50:49;10.70;99.90
21616;DHT22;10970;48.714;9.584;2023-03-14T13:53:15;10.80;99.90
21616;DHT22;10970;48.714;9.584;2023-03-14T13:55:41;10.60;99.90
21616;DHT22;10970;48.714;9.584;2023-03-14T13:58:25;10.40;99.90
21616;DHT22;10970;48.714;9.584;2023-03-14T14:01:27;10.40;99.90
21616;DHT22;10970;48.714;9.584;2023-03-14T14:03:57;10.40;99.90
21616;DHT22;10970;48.714;9.584;2023-03-14T14:09:12;10.40;99.90
21616;DHT22;10970;48.714;9.584;2023-03-14T14:12:00;10.30;99.90
21616;DHT22;10970;48.714;9.584;2023-03-14T14:14:43;10.10;99.90
21616;DHT22;10970;48.714;9.584;2023-03-14T14:17:18;10.00;99.90
21616;DHT22;10970;48.714;9.584;2023-03-14T14:19:46;10.00;99.90
21616;DHT22;10970;48.714;9.584;2023-03-14T14:22:12;10.00;99.90
21616;DHT22;10970;48.714;9.584;2023-03-14T14:24:38;9.90;99.90
21616;DHT22;10970;48.714;9.584;2023-03-14T14:27:17;9.90;99.90
21616;DHT22;10970;48.714;9.584;2023-03-14T14:29:43;9.80;99.90
21616;DHT22;10970;48.714;9.584;2023-03-14T14:32:14;9.70;99.90
21616;DHT22;10970;48.714;9.584;2023-03-14T14:35:01;9.60;99.90
21616;DHT22;10970;48.714;9.584;2023-03-14T14:37:26;9.60;99.90
21616;DHT22;10970;48.714;9.584;2023-03-14T14:39:55;9.60;99.90
21616;DHT22;10970;48.714;9.584;2023-03-14T14:42:29;9.50;99.90
21616;DHT22;10970;48.714;9.584;2023-03-14T14:44:56;9.50;99.90
21616;DHT22;10970;48.714;9.584;2023-03-14T14:47:25;9.50;99.90
21616;DHT22;10970;48.714;9.584;2023-03-14T14:49:53;9.40;99.90
21616;DHT22;10970;48.714;9.584;2023-03-14T14:52:21;9.50;99.90
21616;DHT22;10970;48.714;9.584;2023-03-14T14:54:57;9.40;99.90
21616;DHT22;10970;48.714;9.584;2023-03-14T14:57:26;9.50;99.90
21616;DHT22;10970;48.714;9.584;2023-03-14T15:00:00;9.40;99.90
21616;DHT22;10970;48.714;9.584;2023-03-14T15:02:50;9.50;99.90
21616;DHT22;10970;48.714;9.584;2023-03-14T15:05:22;9.40;99.90
21616;DHT22;10970;48.714;9.584;2023-03-14T15:07:49;9.40;99.90
21616;DHT22;10970;48.714;9.584;2023-03-14T15:10:17;9.40;99.90
21616;DHT22;10970;48.714;9.584;2023-03-14T15:12:43;9.40;99.90
21616;DHT22;10970;48.714;9.584;2023-03-14T15:15:10;9.30;99.90
21616;DHT22;10970;48.714;9.584;2023-03-14T15:17:36;9.20;99.90
21616;DHT22;10970;48.714;9.584;2023-03-14T15:20:04;9.10;99.90
21616;DHT22;10970;48.714;9.584;2023-03-14T15:22:30;9.10;99.90
21616;DHT22;10970;48.714;9.584;2023-03-14T15:24:56;9.20;99.90
21616;DHT22;10970;48.714;9.584;2023-03-14T15:27:22;9.20;99.90
21616;DHT22;10970;48.714;9.584;2023-03-14T15:29:48;9.20;99.90
21616;DHT22;10970;48.714;9.584;2023-03-14T15:32:15;9.20;99.90
21616;DHT22;10970;48.714;9.584;2023-03-14T15:34:42;9.30;99.90
21616;DHT22;10970;48.714;9.584;2023-03-14T15:37:13;9.40;99.90
21616;DHT22;10970;48.714;9.584;2023-03-14T15:39:39;9.50;99.90
21616;DHT22;10970;48.714;9.584;2023-03-14T15:42:05;9.70;99.90
21616;DHT22;10970;48.714;9.584;2023-03-14T15:44:31;9.90;99.90
21616;DHT22;10970;48.714;9.584;2023-03-14T15:46:57;9.90;99.90
21616;DHT22;10970;48.714;9.584;2023-03-14T15:49:22;10.00;99.90
21616;DHT22;10970;48.714;9.584;2023-03-14T15:51:48;10.00;99.90
21616;DHT22;10970;48.714;9.584;2023-03-14T15:54:14;10.00;99.90
21616;DHT22;10970;48.714;9.584;2023-03-14T15:56:40;10.00;99.90
21616;DHT22;10970;48.714;9.584;2023-03-14T15:59:05;10.10;99.90
21616;DHT22;10970;48.714;9.584;2023-03-14T16:01:31;10.00;99.90
21616;DHT22;10970;48.714;9.584;2023-03-14T16:03:57;9.90;99.90
21616;DHT22;10970;48.714;9.584;2023-03-14T16:06:22;9.90;99.90
21616;DHT22;10970;48.714;9.584;2023-03-14T16:08:48;10.00;99.90
21616;DHT22;10970;48.714;9.584;2023-03-14T16:11:14;9.90;99.90
21616;DHT22;10970;48.714;9.584;2023-03-14T16:13:43;9.80;99.90
21616;DHT22;10970;48.714;9.584;2023-03-14T16:16:09;9.70;99.90
21616;DHT22;10970;48.714;9.584;2023-03-14T16:18:38;9.60;99.90
21616;DHT22;10970;48.714;9.584;2023-03-14T16:21:07;9.50;99.90
21616;DHT22;10970;48.714;9.584;2023-03-14T16:23:34;9.30;99.90
21616;DHT22;10970;48.714;9.584;2023-03-14T16:26:04;9.20;99.90
21616;DHT22;10970;48.714;9.584;2023-03-14T16:28:30;9.10;99.90
21616;DHT22;10970;48.714;9.584;2023-03-14T16:31:04;9.00;99.90
21616;DHT22;10970;48.714;9.584;2023-03-14T16:33:31;9.00;99.90
21616;DHT22;10970;48.714;9.584;2023-03-14T16:35:59;8.90;99.90
21616;DHT22;10970;48.714;9.584;2023-03-14T16:38:31;8.90;99.90
21616;DHT22;10970;48.714;9.584;2023-03-14T16:40:58;8.90;99.90
21616;DHT22;10970;48.714;9.584;2023-03-14T16:43:24;8.90;99.90
21616;DHT22;10970;48.714;9.584;2023-03-14T16:45:50;8.80;99.90
21616;DHT22;10970;48.714;9.584;2023-03-14T16:48:16;8.70;99.90
21616;DHT22;10970;48.714;9.584;2023-03-14T16:50:41;8.60;99.90
21616;DHT22;10970;48.714;9.584;2023-03-14T16:53:07;8.50;99.90
21616;DHT22;10970;48.714;9.584;2023-03-14T16:55:33;8.50;99.90
21616;DHT22;10970;48.714;9.584;2023-03-14T16:57:58;8.50;99.90
21616;DHT22;10970;48.714;9.584;2023-03-14T17:00:24;8.30;99.90
21616;DHT22;10970;48.714;9.584;2023-03-14T17:02:50;8.30;99.90
21616;DHT22;10970;48.714;9.584;2023-03-14T17:05:16;8.20;99.90
21616;DHT22;10970;48.714;9.584;2023-03-14T17:07:42;8.20;99.90
21616;DHT22;10970;48.714;9.584;2023-03-14T17:10:08;8.20;99.90
21616;DHT22;10970;48.714;9.584;2023-03-14T17:12:35;8.20;99.90
21616;DHT22;10970;48.714;9.584;2023-03-14T17:15:01;8.20;99.90
21616;DHT22;10970;48.714;9.584;2023-03-14T17:17:26;8.30;99.90